Time;durP1;ratioP1;P1;durP2;ratioP2;P2;SDS_P1;SDS_P2;PMS_P1;PMS_P2;Temp;Humidity;BMP_temperature;BMP_pressure;BME280_temperature;BME280_humidity;BME280_pressure;Samples;Min_cycle;Max_cycle;Signal;HPM_P1;HPM_P2
2022/11/11 00:00:41;;;;;;;22.23;8.30;;;8.70;99.90;;;;;;21004229;28;20206;-70
2022/11/11 00:10:44;;;;;;;18.47;8.30;;;8.60;99.90;;;;;;21003345;28;20265;-70
2022/11/11 00:31:09;;;;;;;14.87;7.73;;;8.50;99.90;;;;;;21001580;28;20311;-69
2022/11/11 00:41:13;;;;;;;12.00;7.10;;;8.30;99.90;;;;;;21000990;28;20265;-72
2022/11/11 00:51:15;;;;;;;15.13;6.67;;;8.30;99.90;;;;;;21000268;28;20288;-70
2022/11/11 01:01:17;;;;;;;14.20;6.70;;;8.30;99.90;;;;;;20999352;28;20272;-73
2022/11/11 01:11:22;;;;;;;9.30;5.93;;;8.00;99.90;;;;;;20998232;28;20241;-75
2022/11/11 01:21:24;;;;;;;14.00;6.00;;;8.00;99.90;;;;;;20959115;28;20297;-76
2022/11/11 01:31:26;;;;;;;10.30;5.70;;;7.70;99.90;;;;;;20911033;28;20293;-75
2022/11/11 01:41:31;;;;;;;10.23;6.13;;;7.90;99.90;;;;;;20913781;28;20211;-75
2022/11/11 01:51:48;;;;;;;13.53;5.97;;;7.90;99.90;;;;;;20914147;28;20248;-75
2022/11/11 02:01:51;;;;;;;11.27;5.87;;;7.80;99.90;;;;;;20912922;28;20780;-72
2022/11/11 02:22:27;;;;;;;11.70;5.93;;;7.70;99.90;;;;;;20913004;28;20210;-72
2022/11/11 02:32:29;;;;;;;20.27;7.10;;;7.70;99.90;;;;;;20911606;28;20261;-73
2022/11/11 02:42:34;;;;;;;25.47;7.97;;;7.50;99.90;;;;;;20913578;28;20207;-70
2022/11/11 02:52:36;;;;;;;43.97;10.23;;;7.60;99.90;;;;;;20927017;28;20249;-73
2022/11/11 03:02:38;;;;;;;29.50;8.67;;;7.60;99.90;;;;;;20926086;28;20206;-73
2022/11/11 03:12:40;;;;;;;34.93;10.10;;;7.80;99.90;;;;;;20925409;28;20243;-73
2022/11/11 03:22:41;;;;;;;50.97;10.93;;;7.70;99.90;;;;;;20924452;28;20710;-70
2022/11/11 03:33:00;;;;;;;65.97;9.90;;;7.70;99.90;;;;;;20921761;28;20698;-73
2022/11/11 03:43:02;;;;;;;66.53;10.90;;;7.60;99.90;;;;;;20923207;28;20210;-71
2022/11/11 03:53:06;;;;;;;49.03;10.37;;;7.60;99.90;;;;;;20921890;28;20245;-70
2022/11/11 04:23:52;;;;;;;23.13;8.40;;;7.70;99.90;;;;;;20920612;28;20214;-69
2022/11/11 04:33:54;;;;;;;11.03;7.03;;;7.60;99.90;;;;;;20920135;28;20235;-75
2022/11/11 04:54:16;;;;;;;27.33;7.30;;;7.60;99.90;;;;;;20917219;28;20314;-73
2022/11/11 05:04:18;;;;;;;16.97;8.27;;;7.70;99.90;;;;;;20916719;28;20267;-73
2022/11/11 05:35:02;;;;;;;22.67;9.30;;;7.70;99.90;;;;;;20912798;28;20276;-74
2022/11/11 05:45:04;;;;;;;14.93;7.60;;;7.80;99.90;;;;;;20913590;28;20210;-75
2022/11/11 05:55:06;;;;;;;31.40;7.40;;;7.80;99.90;;;;;;20912172;28;20239;-73
2022/11/11 06:05:08;;;;;;;86.60;8.13;;;7.70;99.90;;;;;;20910792;28;20213;-73
2022/11/11 06:15:10;;;;;;;14.57;6.93;;;7.70;99.90;;;;;;20914524;28;20888;-76
2022/11/11 06:35:33;;;;;;;20.30;6.80;;;7.70;99.90;;;;;;21010271;28;20233;-71
2022/11/11 06:45:35;;;;;;;43.70;7.50;;;7.70;99.90;;;;;;21008644;28;20241;-73
2022/11/11 06:55:37;;;;;;;10.93;7.60;;;7.70;99.90;;;;;;21008652;28;20250;-73
2022/11/11 07:05:39;;;;;;;45.30;15.23;;;7.70;99.90;;;;;;21006552;28;20235;-71
2022/11/11 07:15:42;;;;;;;39.93;9.87;;;7.70;99.90;;;;;;21004718;28;20245;-74
2022/11/11 07:25:44;;;;;;;28.37;11.03;;;7.60;99.90;;;;;;20948359;28;20572;-74
2022/11/11 07:35:46;;;;;;;31.00;11.60;;;7.70;99.90;;;;;;20921297;28;20262;-72
2022/11/11 07:45:47;;;;;;;23.77;12.33;;;7.70;99.90;;;;;;20921439;28;20215;-74
2022/11/11 07:55:49;;;;;;;87.77;19.53;;;7.90;99.90;;;;;;20921006;28;20787;-73
2022/11/11 08:05:51;;;;;;;61.70;17.50;;;7.90;99.90;;;;;;20920917;28;20602;-73
2022/11/11 08:15:54;;;;;;;39.00;18.07;;;8.00;99.90;;;;;;20919134;28;20308;-74
2022/11/11 08:25:57;;;;;;;48.10;20.03;;;8.10;99.90;;;;;;20918966;28;20219;-73
2022/11/11 08:35:59;;;;;;;73.00;23.67;;;8.30;99.90;;;;;;20934616;28;20242;-69
2022/11/11 08:46:03;;;;;;;65.67;27.77;;;8.30;99.90;;;;;;20999186;28;20195;-69
2022/11/11 08:56:05;;;;;;;75.50;15.07;;;8.20;99.90;;;;;;20998813;28;20251;-70
2022/11/11 09:06:07;;;;;;;60.53;22.63;;;8.10;99.90;;;;;;20998624;28;20214;-70
2022/11/11 09:16:09;;;;;;;43.93;18.53;;;8.10;99.90;;;;;;20997248;28;20241;-70
2022/11/11 09:26:10;;;;;;;35.27;16.87;;;8.10;99.90;;;;;;20958964;28;20233;-68
2022/11/11 09:36:12;;;;;;;25.90;14.70;;;8.40;99.90;;;;;;21011521;28;20230;-70
2022/11/11 09:46:23;;;;;;;28.83;15.23;;;8.50;99.90;;;;;;21026061;28;20216;-70
2022/11/11 09:56:26;;;;;;;27.50;14.50;;;8.60;99.90;;;;;;21055568;28;20255;-74
2022/11/11 10:06:34;;;;;;;30.73;13.33;;;8.70;99.90;;;;;;20995288;28;20289;-70
2022/11/11 10:16:39;;;;;;;28.37;14.87;;;8.80;99.90;;;;;;21042689;28;20677;-78
2022/11/11 10:26:43;;;;;;;31.50;16.40;;;9.00;99.90;;;;;;21077464;28;20199;-74
2022/11/11 10:36:53;;;;;;;34.63;18.93;;;9.00;99.90;;;;;;21066995;28;20375;-68
2022/11/11 10:47:28;;;;;;;32.30;18.53;;;9.30;99.90;;;;;;20993406;28;20256;-70
2022/11/11 10:57:35;;;;;;;27.50;16.87;;;9.50;99.90;;;;;;21028003;28;20236;-77
2022/11/11 11:07:45;;;;;;;73.93;34.70;;;9.70;99.90;;;;;;20999884;28;20206;-76
2022/11/11 11:18:06;;;;;;;51.93;26.63;;;9.80;99.90;;;;;;20992359;28;20238;-71
2022/11/11 11:28:12;;;;;;;46.13;24.53;;;10.00;99.90;;;;;;20973210;28;20199;-69
2022/11/11 11:38:15;;;;;;;36.67;19.47;;;;;;;;;;20940881;28;20237;-75
2022/11/11 11:48:36;;;;;;;34.53;19.30;;;10.70;99.90;;;;;;20927916;28;20264;-78
2022/11/11 12:01:21;;;;;;;32.87;18.07;;;10.80;99.90;;;;;;21002562;28;20604;-73
2022/11/11 12:11:27;;;;;;;32.57;18.80;;;10.90;99.90;;;;;;20983815;28;20222;-76
2022/11/11 12:21:47;;;;;;;30.90;18.53;;;10.90;99.90;;;;;;20981736;28;20728;-77
2022/11/11 12:32:27;;;;;;;32.87;19.20;;;11.00;99.90;;;;;;20981178;28;20291;-77
2022/11/11 12:42:41;;;;;;;28.77;16.10;;;11.00;99.90;;;;;;20980366;28;20220;-75
2022/11/11 12:52:51;;;;;;;25.80;13.60;;;11.30;99.90;;;;;;20942027;28;20238;-75
2022/11/11 13:03:04;;;;;;;22.40;14.33;;;11.50;99.90;;;;;;20895238;28;20211;-77
2022/11/11 13:13:20;;;;;;;33.23;13.87;;;11.70;99.90;;;;;;20907814;28;20228;-81
2022/11/11 13:23:23;;;;;;;14.40;10.50;;;11.50;99.90;;;;;;20927833;28;20298;-78
2022/11/11 13:33:37;;;;;;;15.87;11.40;;;11.60;99.90;;;;;;20920652;28;20238;-77
2022/11/11 13:43:46;;;;;;;18.87;11.57;;;11.80;99.90;;;;;;20903743;28;20211;-78
2022/11/11 13:53:48;;;;;;;40.17;11.27;;;11.90;99.90;;;;;;20920400;28;20784;-79
2022/11/11 14:03:50;;;;;;;18.77;11.57;;;12.00;99.90;;;;;;20919045;28;20218;-78
2022/11/11 14:13:56;;;;;;;15.27;10.83;;;12.10;99.90;;;;;;20920555;28;20236;-80
2022/11/11 14:23:58;;;;;;;12.57;10.23;;;12.20;99.90;;;;;;20946573;28;20753;-76
2022/11/11 14:34:21;;;;;;;19.33;11.93;;;12.00;99.90;;;;;;20943351;28;20239;-79
2022/11/11 14:44:28;;;;;;;18.60;11.30;;;11.80;99.90;;;;;;20918716;28;20607;-69
2022/11/11 14:54:52;;;;;;;16.63;11.50;;;11.50;99.90;;;;;;20913973;28;20248;-67
2022/11/11 15:04:58;;;;;;;20.17;12.43;;;11.30;99.90;;;;;;20916117;28;20212;-74
2022/11/11 15:15:12;;;;;;;17.73;12.67;;;10.90;99.90;;;;;;20912510;28;20310;-72
2022/11/11 15:25:39;;;;;;;21.87;14.03;;;10.80;99.90;;;;;;20911500;28;20213;-72
2022/11/11 15:35:56;;;;;;;76.53;23.57;;;10.50;99.90;;;;;;20906501;28;20642;-74
2022/11/11 15:46:02;;;;;;;84.57;17.90;;;10.20;99.90;;;;;;20878812;28;20264;-76
2022/11/11 15:56:04;;;;;;;25.40;15.70;;;10.10;99.90;;;;;;20898433;28;20775;-72
2022/11/11 16:06:14;;;;;;;28.57;16.10;;;10.00;99.90;;;;;;20895682;28;20226;-72
2022/11/11 16:16:25;;;;;;;76.77;16.40;;;10.00;99.90;;;;;;20884094;28;20687;-72
2022/11/11 16:26:31;;;;;;;31.40;17.07;;;10.00;99.90;;;;;;20870669;28;20304;-72
2022/11/11 16:36:32;;;;;;;105.67;16.97;;;10.00;99.90;;;;;;20827196;28;20698;-72
2022/11/11 16:46:35;;;;;;;58.40;14.30;;;;;;;;;;20841390;28;20619;-72
2022/11/11 16:56:43;;;;;;;41.33;15.63;;;9.80;99.90;;;;;;20875088;28;20243;-73
2022/11/11 17:06:47;;;;;;;58.73;16.00;;;9.80;99.90;;;;;;20853414;28;20200;-72
2022/11/11 17:16:48;;;;;;;25.13;15.00;;;9.70;99.90;;;;;;20840028;28;20282;-69
2022/11/11 17:37:06;;;;;;;29.57;16.13;;;9.80;99.90;;;;;;21067805;28;20570;-71
2022/11/11 17:47:07;;;;;;;23.77;13.43;;;9.80;99.90;;;;;;21067044;28;20266;-72
2022/11/11 17:57:09;;;;;;;87.63;14.97;;;9.80;99.90;;;;;;21067655;28;20579;-72
2022/11/11 18:07:11;;;;;;;47.03;13.73;;;9.60;99.90;;;;;;21069607;28;20686;-72
2022/11/11 18:17:13;;;;;;;42.43;14.40;;;9.30;99.90;;;;;;21065531;28;20210;-72
2022/11/11 18:27:15;;;;;;;63.00;14.87;;;9.40;99.90;;;;;;21063271;28;20206;-73
2022/11/11 18:37:16;;;;;;;63.27;14.27;;;9.40;99.90;;;;;;21062813;28;20199;-70
2022/11/11 18:47:19;;;;;;;22.67;13.73;;;9.30;99.90;;;;;;21013106;28;20208;-72
2022/11/11 18:57:21;;;;;;;26.87;13.67;;;9.30;99.90;;;;;;21005443;28;20679;-75
2022/11/11 19:07:22;;;;;;;58.40;13.50;;;9.20;99.90;;;;;;21005010;28;20572;-72
2022/11/11 19:17:24;;;;;;;24.00;13.90;;;9.20;99.90;;;;;;21004335;28;20208;-70
2022/11/11 19:27:26;;;;;;;55.33;14.67;;;9.20;99.90;;;;;;21003156;28;20281;-70
2022/11/11 19:37:27;;;;;;;66.80;13.73;;;9.20;99.90;;;;;;21002822;28;20595;-68
2022/11/11 19:47:29;;;;;;;38.60;12.83;;;9.10;99.90;;;;;;21001939;28;20222;-73
2022/11/11 19:57:33;;;;;;;77.80;14.30;;;8.80;99.90;;;;;;21001418;28;20275;-74
2022/11/11 20:07:34;;;;;;;33.73;12.33;;;8.80;99.90;;;;;;20922129;28;20238;-71
2022/11/11 20:17:36;;;;;;;64.17;13.73;;;8.70;99.90;;;;;;20917143;28;20212;-70
2022/11/11 20:27:38;;;;;;;97.07;13.70;;;8.60;99.90;;;;;;21061854;28;20704;-70
2022/11/11 20:37:39;;;;;;;65.07;13.27;;;8.50;99.90;;;;;;21078246;28;20210;-69
2022/11/11 20:47:41;;;;;;;114.97;16.10;;;8.50;99.90;;;;;;21079514;28;20234;-70
2022/11/11 20:57:43;;;;;;;110.37;16.87;;;8.60;99.90;;;;;;21078276;28;20218;-70
2022/11/11 21:07:48;;;;;;;40.93;12.47;;;8.70;99.90;;;;;;21076948;28;20274;-70
2022/11/11 21:17:50;;;;;;;41.67;11.40;;;8.70;99.90;;;;;;21076820;28;20210;-70
2022/11/11 21:27:51;;;;;;;125.37;11.90;;;8.50;99.90;;;;;;21076553;28;20697;-70
2022/11/11 21:37:54;;;;;;;41.87;11.07;;;8.40;99.90;;;;;;21076620;28;20691;-70
2022/11/11 21:47:57;;;;;;;24.70;11.07;;;8.40;99.90;;;;;;21077146;28;20237;-69
2022/11/11 21:57:58;;;;;;;34.27;10.70;;;8.30;99.90;;;;;;21076216;28;20233;-70
2022/11/11 22:08:00;;;;;;;31.50;10.80;;;8.30;99.90;;;;;;21073771;28;20229;-70
2022/11/11 22:18:02;;;;;;;50.73;11.37;;;8.20;99.90;;;;;;21081411;28;20225;-70
2022/11/11 22:28:03;;;;;;;32.50;9.10;;;8.20;99.90;;;;;;20942801;28;20242;-70
2022/11/11 22:38:05;;;;;;;26.77;8.73;;;8.30;99.90;;;;;;20921381;28;20318;-70
2022/11/11 22:48:07;;;;;;;20.20;9.20;;;8.40;99.90;;;;;;20922122;28;20230;-70
2022/11/11 22:58:10;;;;;;;19.73;8.93;;;8.40;99.90;;;;;;20920953;28;20250;-70
2022/11/11 23:08:12;;;;;;;12.57;8.80;;;8.50;99.90;;;;;;20919921;28;20238;-70
2022/11/11 23:18:14;;;;;;;14.07;9.37;;;8.50;99.90;;;;;;20919499;28;20211;-70
2022/11/11 23:28:15;;;;;;;13.83;9.70;;;8.60;99.90;;;;;;20918446;28;20231;-70
2022/11/11 23:38:17;;;;;;;16.33;10.00;;;8.60;99.90;;;;;;20917748;28;20205;-70
2022/11/11 23:48:19;;;;;;;19.33;9.70;;;8.60;99.90;;;;;;20917420;28;20235;-70
2022/11/11 23:58:21;;;;;;;15.03;9.63;;;8.60;99.90;;;;;;20916507;28;20613;-70
